Time;durP1;ratioP1;P1;durP2;ratioP2;P2;SDS_P1;SDS_P2;PMS_P1;PMS_P2;Temp;Humidity;BMP_temperature;BMP_pressure;BME280_temperature;BME280_humidity;BME280_pressure;Samples;Min_cycle;Max_cycle;Signal;HPM_P1;HPM_P2
2023/08/12 00:01:58;;;;;;;8.80;3.92;;;20.20;63.40;;;;;;5062069;28;20029;-68
2023/08/12 00:04:24;;;;;;;11.25;4.32;;;20.20;63.50;;;;;;5060361;28;20027;-70
2023/08/12 00:06:51;;;;;;;10.50;4.10;;;20.10;63.40;;;;;;5064653;28;20032;-72
2023/08/12 00:09:20;;;;;;;11.00;4.07;;;20.00;63.30;;;;;;5058439;28;20036;-71
2023/08/12 00:11:47;;;;;;;10.85;3.47;;;20.00;63.30;;;;;;5059517;28;20033;-73
2023/08/12 00:14:13;;;;;;;9.05;4.05;;;20.10;63.60;;;;;;5066057;28;20527;-72
2023/08/12 00:16:40;;;;;;;9.10;3.03;;;20.00;63.60;;;;;;5064602;28;20117;-74
2023/08/12 00:19:08;;;;;;;10.05;3.30;;;20.00;63.70;;;;;;5071927;28;20805;-70
2023/08/12 00:21:34;;;;;;;13.32;3.72;;;19.90;63.60;;;;;;5053852;28;20543;-70
2023/08/12 00:24:00;;;;;;;9.05;3.40;;;19.90;63.60;;;;;;5063250;28;20036;-70
2023/08/12 00:26:27;;;;;;;10.15;3.10;;;19.90;63.70;;;;;;5060362;28;20575;-71
2023/08/12 00:28:53;;;;;;;11.40;3.85;;;19.80;63.70;;;;;;5063483;28;20388;-71
2023/08/12 00:31:19;;;;;;;8.45;3.10;;;19.80;63.70;;;;;;5060780;28;20653;-71
2023/08/12 00:33:47;;;;;;;11.20;3.70;;;19.80;63.80;;;;;;5066199;28;20028;-70
2023/08/12 00:36:13;;;;;;;9.80;3.10;;;19.80;63.90;;;;;;5064423;28;20036;-70
2023/08/12 00:38:39;;;;;;;10.43;3.60;;;19.70;63.80;;;;;;5059745;28;20032;-70
2023/08/12 00:41:05;;;;;;;8.38;4.25;;;19.70;64.40;;;;;;5067188;28;20056;-71
2023/08/12 00:43:31;;;;;;;9.63;3.13;;;19.70;64.00;;;;;;5062950;28;20032;-70
2023/08/12 00:45:57;;;;;;;13.68;3.55;;;19.60;63.90;;;;;;5063614;28;20423;-70
2023/08/12 00:48:23;;;;;;;9.93;3.78;;;19.70;64.10;;;;;;5057077;28;20035;-70
2023/08/12 00:50:49;;;;;;;7.97;2.75;;;19.60;64.10;;;;;;5059902;28;20112;-69
2023/08/12 00:53:16;;;;;;;9.55;3.63;;;19.60;64.10;;;;;;5061548;28;20032;-70
2023/08/12 00:55:42;;;;;;;8.32;2.88;;;19.60;64.20;;;;;;5062330;28;20766;-70
2023/08/12 00:58:09;;;;;;;9.77;4.32;;;19.50;64.10;;;;;;5062733;28;20078;-70
2023/08/12 01:00:35;;;;;;;11.10;3.90;;;19.50;64.20;;;;;;5062988;28;20483;-70
2023/08/12 01:03:01;;;;;;;10.50;3.38;;;19.50;64.20;;;;;;5060431;28;20029;-71
2023/08/12 01:05:27;;;;;;;10.20;2.88;;;19.50;64.30;;;;;;5061339;28;20874;-70
2023/08/12 01:07:53;;;;;;;8.25;3.20;;;19.40;64.20;;;;;;5063140;28;20606;-70
2023/08/12 01:10:22;;;;;;;9.63;4.53;;;19.40;64.30;;;;;;5057749;28;20074;-70
2023/08/12 01:13:06;;;;;;;8.05;3.67;;;19.40;64.40;;;;;;5061039;28;20067;-70
2023/08/12 01:15:33;;;;;;;9.18;3.67;;;19.30;64.40;;;;;;5059496;28;20087;-70
2023/08/12 01:18:01;;;;;;;13.00;4.75;;;19.30;64.40;;;;;;5060823;28;20067;-70
2023/08/12 01:20:31;;;;;;;15.70;4.47;;;19.30;64.50;;;;;;5065675;28;20124;-70
2023/08/12 01:23:14;;;;;;;11.00;3.92;;;19.30;64.60;;;;;;5060128;28;20032;-70
2023/08/12 01:25:41;;;;;;;10.10;3.60;;;19.20;64.50;;;;;;5058066;28;20032;-70
2023/08/12 01:28:07;;;;;;;8.73;3.50;;;19.20;64.60;;;;;;5063558;28;20629;-70
2023/08/12 01:31:10;;;;;;;10.60;3.30;;;19.20;65.20;;;;;;5062444;28;20036;-70
2023/08/12 01:33:46;;;;;;;9.63;3.28;;;19.20;64.80;;;;;;5060005;28;20075;-70
2023/08/12 01:36:17;;;;;;;12.80;3.67;;;19.10;64.60;;;;;;5062849;28;20044;-70
2023/08/12 01:38:44;;;;;;;12.45;4.35;;;19.20;64.90;;;;;;5057179;28;20038;-70
2023/08/12 01:41:11;;;;;;;8.85;3.17;;;19.10;64.80;;;;;;5061989;28;20082;-70
2023/08/12 01:43:38;;;;;;;13.30;4.30;;;19.10;64.90;;;;;;5059950;28;20495;-71
2023/08/12 01:46:05;;;;;;;9.27;3.33;;;19.10;65.00;;;;;;5058850;28;20534;-69
2023/08/12 01:48:31;;;;;;;12.15;3.65;;;19.10;65.10;;;;;;5058791;28;20040;-70
2023/08/12 01:50:57;;;;;;;7.65;3.35;;;19.10;65.10;;;;;;5051169;28;20067;-70
2023/08/12 01:53:23;;;;;;;9.60;3.63;;;19.00;65.10;;;;;;5062404;28;20789;-70
2023/08/12 01:55:51;;;;;;;8.68;3.60;;;19.10;65.30;;;;;;5058052;28;20017;-70
2023/08/12 01:58:17;;;;;;;12.25;3.55;;;19.00;65.20;;;;;;5067322;28;20031;-70
2023/08/12 02:00:43;;;;;;;11.45;4.00;;;19.00;65.30;;;;;;5061991;28;20498;-71
2023/08/12 02:03:09;;;;;;;8.23;3.55;;;19.00;65.40;;;;;;5062820;28;20028;-70
2023/08/12 02:05:37;;;;;;;10.73;3.47;;;19.00;66.10;;;;;;5064365;28;20086;-71
2023/08/12 02:08:04;;;;;;;10.93;3.70;;;18.90;65.40;;;;;;5064668;28;20032;-70
2023/08/12 02:10:30;;;;;;;11.40;3.33;;;18.90;65.50;;;;;;5056807;28;20025;-70
2023/08/12 02:12:57;;;;;;;13.45;3.35;;;18.90;65.60;;;;;;5073565;28;20044;-70
2023/08/12 02:15:23;;;;;;;11.98;3.38;;;18.90;65.70;;;;;;5062927;28;20433;-70
2023/08/12 02:17:49;;;;;;;10.13;3.75;;;18.80;65.60;;;;;;5063794;28;20550;-70
2023/08/12 02:20:15;;;;;;;12.10;2.92;;;18.80;65.70;;;;;;5061710;28;20072;-69
2023/08/12 02:22:41;;;;;;;10.05;3.58;;;18.80;65.80;;;;;;5062802;28;20037;-70
2023/08/12 02:25:07;;;;;;;11.98;3.85;;;18.80;65.80;;;;;;5065649;28;20035;-72
2023/08/12 02:27:33;;;;;;;9.38;3.47;;;18.70;65.80;;;;;;5064272;28;20539;-71
2023/08/12 02:29:59;;;;;;;11.52;4.30;;;18.70;65.90;;;;;;5070379;28;20067;-72
2023/08/12 02:32:26;;;;;;;11.80;4.20;;;18.70;66.00;;;;;;5057702;28;20123;-71
2023/08/12 02:34:53;;;;;;;13.18;3.58;;;18.70;66.00;;;;;;5064111;28;20675;-71
2023/08/12 02:37:18;;;;;;;9.15;3.22;;;18.70;66.10;;;;;;5065005;28;20484;-71
2023/08/12 02:39:45;;;;;;;11.07;3.55;;;18.70;66.20;;;;;;5063577;28;20131;-72
2023/08/12 02:42:11;;;;;;;10.40;3.08;;;18.60;66.10;;;;;;5074833;28;20131;-71
2023/08/12 02:44:37;;;;;;;11.82;4.10;;;18.60;66.20;;;;;;5063727;28;20048;-72
2023/08/12 02:47:03;;;;;;;13.02;4.18;;;18.60;66.20;;;;;;5070816;28;20044;-71
2023/08/12 02:49:29;;;;;;;11.85;4.00;;;18.60;66.30;;;;;;5056993;28;20036;-71
2023/08/12 02:51:55;;;;;;;13.70;4.78;;;18.60;66.40;;;;;;5073305;28;20088;-70
2023/08/12 02:54:21;;;;;;;12.98;4.35;;;18.60;66.50;;;;;;5078249;28;20036;-70
2023/08/12 02:56:47;;;;;;;11.85;3.55;;;18.60;66.50;;;;;;5062314;28;20032;-70
2023/08/12 02:59:13;;;;;;;12.07;3.55;;;18.60;66.60;;;;;;5060410;28;20086;-74
2023/08/12 03:01:41;;;;;;;11.90;3.58;;;18.60;66.70;;;;;;5059146;28;20060;-72
2023/08/12 03:04:07;;;;;;;14.55;4.78;;;18.60;66.80;;;;;;5063944;28;20672;-72
2023/08/12 03:06:33;;;;;;;9.68;3.65;;;18.60;66.80;;;;;;5054754;28;20060;-72
2023/08/12 03:08:59;;;;;;;10.98;3.45;;;18.60;66.90;;;;;;5059471;28;20031;-72
2023/08/12 03:11:26;;;;;;;9.98;3.50;;;18.50;66.80;;;;;;5064699;28;20033;-72
2023/08/12 03:13:53;;;;;;;12.98;3.75;;;18.60;67.00;;;;;;5059690;28;20043;-71
2023/08/12 03:16:20;;;;;;;11.15;3.67;;;18.50;66.90;;;;;;5065375;28;20032;-72
2023/08/12 03:18:47;;;;;;;11.38;4.43;;;18.50;66.90;;;;;;5069277;28;20066;-71
2023/08/12 03:21:13;;;;;;;14.30;4.93;;;18.60;67.10;;;;;;5063141;28;20355;-71
2023/08/12 03:23:40;;;;;;;14.40;3.85;;;18.50;67.00;;;;;;5061049;28;20027;-72
2023/08/12 03:26:08;;;;;;;13.23;4.47;;;18.50;67.00;;;;;;5069885;28;20780;-69
2023/08/12 03:28:35;;;;;;;12.38;4.38;;;18.50;67.10;;;;;;5049285;28;20028;-70
2023/08/12 03:31:01;;;;;;;21.13;5.15;;;18.50;67.10;;;;;;5068408;28;20119;-70
2023/08/12 03:33:27;;;;;;;14.90;4.53;;;18.50;67.10;;;;;;5062769;28;20025;-69
2023/08/12 03:35:55;;;;;;;13.13;3.15;;;18.50;67.20;;;;;;5067611;28;20044;-70
2023/08/12 03:38:21;;;;;;;20.83;4.90;;;18.50;67.20;;;;;;5064397;28;20123;-69
2023/08/12 03:40:49;;;;;;;9.25;3.65;;;18.50;67.30;;;;;;5066857;28;20047;-74
2023/08/12 03:43:17;;;;;;;13.35;5.38;;;18.50;67.40;;;;;;5060152;28;20028;-73
2023/08/12 03:45:45;;;;;;;10.77;3.13;;;18.40;67.20;;;;;;5069103;28;20066;-72
2023/08/12 03:48:13;;;;;;;12.68;4.22;;;18.50;67.40;;;;;;5065089;28;21287;-74
2023/08/12 03:50:41;;;;;;;12.43;3.92;;;18.50;67.50;;;;;;5056840;28;20107;-71
2023/08/12 03:53:08;;;;;;;13.85;4.70;;;18.40;67.40;;;;;;5055325;28;20037;-70
2023/08/12 03:55:35;;;;;;;12.88;3.63;;;18.40;67.50;;;;;;5059012;28;20032;-70
2023/08/12 03:58:02;;;;;;;11.93;3.60;;;18.40;67.50;;;;;;5062088;28;20081;-70
2023/08/12 04:00:29;;;;;;;12.88;3.55;;;18.40;67.60;;;;;;5060413;28;20135;-71
2023/08/12 04:02:58;;;;;;;11.40;3.55;;;18.40;67.60;;;;;;5059119;28;20822;-71
2023/08/12 04:05:24;;;;;;;13.13;3.33;;;18.40;67.70;;;;;;5066688;28;20146;-71
2023/08/12 04:07:50;;;;;;;13.38;3.30;;;18.40;67.70;;;;;;5076820;28;20028;-73
2023/08/12 04:10:17;;;;;;;13.75;4.18;;;18.40;67.80;;;;;;5072433;28;20036;-73
2023/08/12 04:12:43;;;;;;;15.15;4.30;;;18.40;67.80;;;;;;5079265;28;20039;-74
2023/08/12 04:15:09;;;;;;;11.85;4.38;;;18.40;68.40;;;;;;5056921;28;20063;-74
2023/08/12 04:17:36;;;;;;;10.23;3.20;;;18.40;67.90;;;;;;5064658;28;20032;-74
2023/08/12 04:20:07;;;;;;;15.13;4.95;;;18.40;68.00;;;;;;5068421;28;20032;-73
2023/08/12 04:22:35;;;;;;;9.88;3.35;;;18.40;68.00;;;;;;5064926;28;20124;-73
2023/08/12 04:25:02;;;;;;;9.57;3.08;;;18.40;68.00;;;;;;5068871;28;20029;-73
2023/08/12 04:27:28;;;;;;;13.25;4.25;;;18.40;68.00;;;;;;5076588;28;20040;-73
2023/08/12 04:29:55;;;;;;;13.40;4.00;;;18.40;68.10;;;;;;5059121;28;20118;-72
2023/08/12 04:32:22;;;;;;;14.88;3.75;;;18.40;68.10;;;;;;5073201;28;20036;-72
2023/08/12 04:34:50;;;;;;;11.98;3.33;;;18.40;68.10;;;;;;5075641;28;20039;-72
2023/08/12 04:37:16;;;;;;;12.80;4.07;;;18.40;68.10;;;;;;5071263;28;20027;-72
2023/08/12 04:39:43;;;;;;;8.00;2.92;;;18.40;68.20;;;;;;5078144;28;20569;-72
2023/08/12 04:42:10;;;;;;;12.95;5.47;;;18.40;68.20;;;;;;5075239;28;20032;-72
2023/08/12 04:44:37;;;;;;;9.75;3.08;;;18.30;68.00;;;;;;5077647;28;20135;-72
2023/08/12 04:47:03;;;;;;;10.77;2.83;;;18.40;68.30;;;;;;5070667;28;20636;-72
2023/08/12 04:49:32;;;;;;;13.88;4.38;;;18.30;68.10;;;;;;5064474;28;20032;-72
2023/08/12 04:51:58;;;;;;;12.43;4.03;;;18.30;68.10;;;;;;5057274;28;20110;-72
2023/08/12 04:54:24;;;;;;;13.30;4.75;;;18.30;68.10;;;;;;5068373;28;20040;-72
2023/08/12 04:56:50;;;;;;;9.63;3.30;;;18.30;68.20;;;;;;5074040;28;20537;-71
2023/08/12 04:59:16;;;;;;;14.18;4.00;;;18.30;68.20;;;;;;5070456;28;20040;-73
2023/08/12 05:01:42;;;;;;;11.85;3.85;;;18.30;68.20;;;;;;5072444;28;20131;-72
2023/08/12 05:04:08;;;;;;;15.02;3.25;;;18.30;68.20;;;;;;5064403;28;20139;-71
2023/08/12 05:06:34;;;;;;;15.00;3.78;;;18.30;68.20;;;;;;5066968;28;20043;-72
2023/08/12 05:09:02;;;;;;;9.23;3.45;;;18.30;68.30;;;;;;5060566;28;20537;-72
2023/08/12 05:11:30;;;;;;;11.80;3.25;;;18.30;68.20;;;;;;5064460;28;20045;-71
2023/08/12 05:13:56;;;;;;;11.77;3.58;;;18.30;68.20;;;;;;5048293;28;20037;-72
2023/08/12 05:16:22;;;;;;;16.50;4.30;;;18.30;68.20;;;;;;5062144;28;20032;-71
2023/08/12 05:18:48;;;;;;;14.27;4.25;;;18.30;68.30;;;;;;5066074;28;20032;-71
2023/08/12 05:21:14;;;;;;;12.50;3.65;;;18.40;69.00;;;;;;5064828;28;20055;-70
2023/08/12 05:23:41;;;;;;;16.23;4.80;;;18.50;70.00;;;;;;5060454;28;20036;-70
2023/08/12 05:26:07;;;;;;;11.52;4.20;;;18.60;70.90;;;;;;5061624;28;20034;-71
2023/08/12 05:28:33;;;;;;;14.05;4.85;;;18.70;71.60;;;;;;5063995;28;20437;-71
2023/08/12 05:31:02;;;;;;;11.95;3.70;;;18.80;72.00;;;;;;5060015;28;20036;-71
2023/08/12 05:33:28;;;;;;;10.15;4.28;;;19.00;72.60;;;;;;5057313;28;20032;-73
2023/08/12 05:35:55;;;;;;;18.85;4.63;;;19.10;72.80;;;;;;5061264;28;20094;-73
2023/08/12 05:38:21;;;;;;;19.10;5.63;;;19.10;72.30;;;;;;5056356;28;20046;-73
2023/08/12 05:40:47;;;;;;;16.58;5.35;;;19.20;71.90;;;;;;5057803;28;20072;-73
2023/08/12 05:43:14;;;;;;;13.85;4.30;;;19.20;71.50;;;;;;5063297;28;20826;-73
2023/08/12 05:45:40;;;;;;;13.48;3.38;;;19.10;71.00;;;;;;5059243;28;20685;-73
2023/08/12 05:48:07;;;;;;;14.38;3.88;;;19.00;70.60;;;;;;5059415;28;20028;-73
2023/08/12 05:50:34;;;;;;;11.85;3.42;;;19.00;70.40;;;;;;5059588;28;20132;-73
2023/08/12 05:53:00;;;;;;;16.27;3.58;;;19.00;70.30;;;;;;5055004;28;20024;-73
2023/08/12 05:55:26;;;;;;;17.52;3.97;;;19.00;70.80;;;;;;5058303;28;20435;-72
2023/08/12 05:57:52;;;;;;;19.08;4.50;;;19.00;70.10;;;;;;5061364;28;20043;-73
2023/08/12 06:00:18;;;;;;;17.52;4.55;;;19.00;70.10;;;;;;5061902;28;20036;-73
2023/08/12 06:02:44;;;;;;;16.95;4.13;;;19.00;70.00;;;;;;5061924;28;20104;-73
2023/08/12 06:05:10;;;;;;;12.82;3.97;;;18.90;69.80;;;;;;5060960;28;20059;-73
2023/08/12 06:07:36;;;;;;;18.27;4.57;;;18.90;69.70;;;;;;5057549;28;20037;-73
2023/08/12 06:10:03;;;;;;;14.63;3.75;;;18.90;69.70;;;;;;5039063;28;20029;-73
2023/08/12 06:12:29;;;;;;;17.45;3.55;;;18.90;69.70;;;;;;5057994;28;20029;-73
2023/08/12 06:14:55;;;;;;;11.52;3.28;;;18.90;69.70;;;;;;5059367;28;20121;-73
2023/08/12 06:17:21;;;;;;;13.95;4.43;;;18.90;69.60;;;;;;5055804;28;20044;-72
2023/08/12 06:19:47;;;;;;;19.85;4.78;;;18.90;69.60;;;;;;5060979;28;20047;-73
2023/08/12 06:22:16;;;;;;;16.42;4.72;;;18.90;69.60;;;;;;5061096;28;20036;-73
2023/08/12 06:24:42;;;;;;;15.07;4.32;;;18.90;69.70;;;;;;5062289;28;20029;-71
2023/08/12 06:27:11;;;;;;;12.82;3.97;;;18.90;69.70;;;;;;5064685;28;20115;-72
2023/08/12 06:29:37;;;;;;;14.60;3.80;;;18.90;70.00;;;;;;5064712;28;20635;-72
2023/08/12 06:32:04;;;;;;;14.75;4.20;;;18.90;69.70;;;;;;5064490;28;20130;-72
2023/08/12 06:34:30;;;;;;;26.90;5.97;;;19.00;69.80;;;;;;5062645;28;20054;-72
2023/08/12 06:36:56;;;;;;;26.10;6.97;;;19.00;69.80;;;;;;5068086;28;20028;-72
2023/08/12 06:39:25;;;;;;;18.73;3.40;;;19.00;69.80;;;;;;5061553;28;20089;-72
2023/08/12 06:41:52;;;;;;;15.07;5.38;;;19.00;70.30;;;;;;5055160;28;20078;-72
2023/08/12 06:44:18;;;;;;;14.20;4.72;;;19.00;69.80;;;;;;5062240;28;20047;-72
2023/08/12 06:46:44;;;;;;;18.55;4.10;;;19.00;69.90;;;;;;5063510;28;20043;-72
2023/08/12 06:49:13;;;;;;;17.63;4.65;;;19.00;69.90;;;;;;5058147;28;20025;-73
2023/08/12 06:51:40;;;;;;;17.60;5.20;;;19.10;70.10;;;;;;5065515;28;20496;-73
2023/08/12 06:54:06;;;;;;;17.88;6.22;;;19.10;70.00;;;;;;5057776;28;20412;-72
2023/08/12 06:56:32;;;;;;;12.80;5.30;;;19.20;70.10;;;;;;5062193;28;20029;-72
2023/08/12 06:58:58;;;;;;;17.95;3.70;;;19.30;70.10;;;;;;5060763;28;20032;-73
2023/08/12 07:01:24;;;;;;;18.98;4.63;;;19.30;70.00;;;;;;5062092;28;20158;-76
2023/08/12 07:03:53;;;;;;;19.83;4.75;;;19.40;70.10;;;;;;5066589;28;20032;-75
2023/08/12 07:06:19;;;;;;;15.57;4.43;;;19.40;70.00;;;;;;5057942;28;20029;-73
2023/08/12 07:08:45;;;;;;;13.27;4.60;;;19.50;70.10;;;;;;5053721;28;20033;-72
2023/08/12 07:11:11;;;;;;;24.77;4.93;;;19.70;70.20;;;;;;5057334;28;20032;-72
2023/08/12 07:13:37;;;;;;;17.25;4.28;;;19.80;70.20;;;;;;5056572;28;20043;-73
2023/08/12 07:16:04;;;;;;;17.02;5.10;;;19.90;70.20;;;;;;5040119;28;20038;-72
2023/08/12 07:18:34;;;;;;;14.43;4.25;;;20.00;70.20;;;;;;5060916;28;20449;-72
2023/08/12 07:21:01;;;;;;;12.98;4.22;;;20.10;70.20;;;;;;5067407;28;20055;-72
2023/08/12 07:23:27;;;;;;;15.52;3.72;;;20.20;70.10;;;;;;5062417;28;20032;-72
2023/08/12 07:25:53;;;;;;;21.30;5.47;;;20.20;70.00;;;;;;5066454;28;20043;-72
2023/08/12 07:28:19;;;;;;;12.68;3.78;;;20.30;69.90;;;;;;5065010;28;20024;-73
2023/08/12 07:30:52;;;;;;;14.85;3.95;;;20.30;69.80;;;;;;5055539;28;20578;-72
2023/08/12 07:33:21;;;;;;;14.82;3.28;;;20.40;69.90;;;;;;5055487;28;20866;-72
2023/08/12 07:35:47;;;;;;;19.00;5.40;;;20.40;69.80;;;;;;5057060;28;20052;-73
2023/08/12 07:38:13;;;;;;;15.88;3.95;;;20.50;69.80;;;;;;5056088;28;20036;-72
2023/08/12 07:40:40;;;;;;;14.05;4.03;;;20.60;69.80;;;;;;5059813;28;20067;-72
2023/08/12 07:43:06;;;;;;;14.43;3.80;;;20.70;69.70;;;;;;5059434;28;20371;-72
2023/08/12 07:45:32;;;;;;;15.80;4.82;;;20.80;69.50;;;;;;5064233;28;20039;-73
2023/08/12 07:47:59;;;;;;;13.52;3.22;;;20.90;69.40;;;;;;5064297;28;20165;-73
2023/08/12 07:50:25;;;;;;;11.93;3.92;;;21.00;69.30;;;;;;5060410;28;20122;-73
2023/08/12 07:52:51;;;;;;;10.82;3.35;;;21.00;69.00;;;;;;5058881;28;20028;-72
2023/08/12 07:55:20;;;;;;;12.10;4.22;;;21.10;69.00;;;;;;5060335;28;20568;-73
2023/08/12 07:57:49;;;;;;;16.73;3.85;;;21.10;68.90;;;;;;5064036;28;20557;-73
2023/08/12 08:00:15;;;;;;;12.73;3.80;;;21.20;68.90;;;;;;5066377;28;20044;-74
2023/08/12 08:02:41;;;;;;;13.18;4.10;;;21.30;68.90;;;;;;5070015;28;20036;-73
2023/08/12 08:05:08;;;;;;;11.60;3.47;;;21.30;68.60;;;;;;5068920;28;20032;-74
2023/08/12 08:07:34;;;;;;;15.52;3.63;;;21.40;68.50;;;;;;5062575;28;20044;-72
2023/08/12 08:10:00;;;;;;;15.38;3.45;;;21.50;68.40;;;;;;5057009;28;20163;-72
2023/08/12 08:12:26;;;;;;;12.05;3.17;;;21.70;68.40;;;;;;5061887;28;20040;-72
2023/08/12 08:14:52;;;;;;;13.05;3.53;;;21.90;68.40;;;;;;5066046;28;20324;-72
2023/08/12 08:17:18;;;;;;;12.02;2.90;;;22.00;68.20;;;;;;5064949;28;20032;-72
2023/08/12 08:19:44;;;;;;;10.25;2.97;;;22.00;67.80;;;;;;5028883;28;20111;-72
2023/08/12 08:22:10;;;;;;;14.27;3.30;;;22.10;67.70;;;;;;5061626;28;20030;-72
2023/08/12 08:24:36;;;;;;;12.95;2.90;;;22.20;67.70;;;;;;5055811;28;20688;-72
2023/08/12 08:27:04;;;;;;;9.15;2.83;;;22.20;67.40;;;;;;5057651;28;20020;-72
2023/08/12 08:29:33;;;;;;;11.32;3.05;;;22.20;67.20;;;;;;5061852;28;20412;-72
2023/08/12 08:31:59;;;;;;;14.00;4.32;;;22.20;67.10;;;;;;5057729;28;20046;-71
2023/08/12 08:34:25;;;;;;;10.07;2.92;;;22.20;67.00;;;;;;5059433;28;20056;-71
2023/08/12 08:36:51;;;;;;;12.32;3.25;;;22.20;66.90;;;;;;5057332;28;20040;-72
2023/08/12 08:39:17;;;;;;;12.45;3.58;;;22.30;67.00;;;;;;5054164;28;20052;-73
2023/08/12 08:41:47;;;;;;;11.88;2.88;;;22.40;67.00;;;;;;5054413;28;20660;-73
2023/08/12 08:44:15;;;;;;;12.23;3.22;;;22.40;66.90;;;;;;5058588;28;20037;-73
2023/08/12 08:46:43;;;;;;;12.13;2.40;;;22.60;66.90;;;;;;5062338;28;20021;-74
2023/08/12 08:49:14;;;;;;;12.00;3.55;;;22.60;66.60;;;;;;5055215;28;20032;-73
2023/08/12 08:51:42;;;;;;;12.07;2.55;;;22.60;66.50;;;;;;5058403;28;20032;-74
2023/08/12 08:54:09;;;;;;;13.07;2.65;;;22.70;66.60;;;;;;5060981;28;20032;-73
2023/08/12 08:56:39;;;;;;;8.65;2.60;;;22.70;66.50;;;;;;5057585;28;20050;-73
2023/08/12 08:59:05;;;;;;;10.38;2.67;;;22.70;66.40;;;;;;5054325;28;20537;-73
2023/08/12 09:01:31;;;;;;;8.55;3.33;;;22.60;66.30;;;;;;5064367;28;20130;-72
2023/08/12 09:04:00;;;;;;;11.00;3.45;;;22.70;66.50;;;;;;5057413;28;20029;-72
2023/08/12 09:06:30;;;;;;;12.07;2.97;;;22.60;66.30;;;;;;5058717;28;20048;-74
2023/08/12 09:08:57;;;;;;;10.20;3.58;;;22.70;66.40;;;;;;5053953;28;20060;-73
2023/08/12 09:11:23;;;;;;;12.73;3.38;;;22.80;66.40;;;;;;5057624;28;20504;-72
2023/08/12 09:13:52;;;;;;;10.07;2.55;;;22.90;66.30;;;;;;5059118;28;20480;-73
2023/08/12 09:16:19;;;;;;;12.70;3.33;;;23.10;66.20;;;;;;5058628;28;20040;-72
2023/08/12 09:18:45;;;;;;;7.38;2.85;;;23.30;66.00;;;;;;5058178;28;20383;-72
2023/08/12 09:21:11;;;;;;;13.98;2.70;;;23.40;65.80;;;;;;5062508;28;20036;-73
2023/08/12 09:23:39;;;;;;;7.85;2.83;;;23.40;65.70;;;;;;5058428;28;20025;-74
2023/08/12 09:26:17;;;;;;;10.50;3.05;;;23.40;65.60;;;;;;5058385;28;20483;-74
2023/08/12 09:28:44;;;;;;;12.63;4.53;;;23.40;65.50;;;;;;5060759;28;20043;-72
2023/08/12 09:31:28;;;;;;;10.35;2.58;;;23.40;65.50;;;;;;5060456;28;20029;-72
2023/08/12 09:33:58;;;;;;;13.32;3.58;;;23.50;65.70;;;;;;5054012;28;20361;-74
2023/08/12 09:36:27;;;;;;;8.90;3.10;;;23.50;65.50;;;;;;5069488;28;20028;-73
2023/08/12 09:38:53;;;;;;;9.13;2.35;;;23.80;65.70;;;;;;5062071;28;20039;-73
2023/08/12 09:41:19;;;;;;;9.57;2.67;;;24.00;65.50;;;;;;5063100;28;20061;-73
2023/08/12 09:43:45;;;;;;;10.07;2.88;;;24.30;65.40;;;;;;5051618;28;20111;-71
2023/08/12 09:46:15;;;;;;;7.38;2.92;;;24.60;65.30;;;;;;5061164;28;20763;-72
2023/08/12 09:48:41;;;;;;;8.88;2.70;;;24.90;65.00;;;;;;5054738;28;20031;-72
2023/08/12 09:51:08;;;;;;;8.27;2.50;;;25.10;64.70;;;;;;5059445;28;20035;-70
2023/08/12 09:53:34;;;;;;;9.00;2.40;;;25.10;64.30;;;;;;5054837;28;20028;-71
2023/08/12 09:56:11;;;;;;;7.95;2.90;;;25.10;64.10;;;;;;5058143;28;20141;-70
2023/08/12 09:58:43;;;;;;;7.85;2.30;;;25.20;63.80;;;;;;5057833;28;20097;-72
2023/08/12 10:01:10;;;;;;;7.72;2.28;;;25.20;63.70;;;;;;5058118;28;20050;-71
2023/08/12 10:03:37;;;;;;;8.43;2.60;;;25.10;63.60;;;;;;5057532;28;20032;-69
2023/08/12 10:06:05;;;;;;;11.43;2.75;;;25.10;63.70;;;;;;5045370;28;20040;-71
2023/08/12 10:08:38;;;;;;;7.75;2.33;;;25.00;63.80;;;;;;5052556;28;20566;-71
2023/08/12 10:11:04;;;;;;;9.30;2.33;;;24.90;63.70;;;;;;5051224;28;20811;-71
2023/08/12 10:13:30;;;;;;;7.50;2.22;;;24.90;63.70;;;;;;5060013;28;20038;-72
2023/08/12 10:15:56;;;;;;;9.65;2.45;;;24.90;63.70;;;;;;5060924;28;20140;-71
2023/08/12 10:18:25;;;;;;;6.93;2.20;;;24.80;63.70;;;;;;5062490;28;20036;-71
2023/08/12 10:20:52;;;;;;;10.68;2.75;;;24.80;63.70;;;;;;5059356;28;20044;-72
2023/08/12 10:23:19;;;;;;;7.63;2.08;;;25.00;63.90;;;;;;5058170;28;20090;-72
2023/08/12 10:25:45;;;;;;;8.10;2.65;;;25.10;63.70;;;;;;5065601;28;20056;-72
2023/08/12 10:28:19;;;;;;;7.03;2.42;;;25.20;63.40;;;;;;5055847;28;20032;-72
2023/08/12 10:30:45;;;;;;;8.27;2.10;;;25.30;63.10;;;;;;5054690;28;20021;-72
2023/08/12 10:33:16;;;;;;;6.97;2.05;;;25.30;63.00;;;;;;5058223;28;20044;-73
2023/08/12 10:35:49;;;;;;;9.90;2.25;;;25.20;63.40;;;;;;5067575;28;20381;-74
2023/08/12 10:38:18;;;;;;;5.38;1.75;;;25.10;62.80;;;;;;5067095;28;20684;-73
2023/08/12 10:40:45;;;;;;;8.15;1.90;;;25.00;62.90;;;;;;5067401;28;20040;-74
2023/08/12 10:43:15;;;;;;;8.02;2.13;;;24.80;62.70;;;;;;5049255;28;20126;-73
2023/08/12 10:45:51;;;;;;;6.38;2.03;;;24.70;62.70;;;;;;5061266;28;20060;-73
2023/08/12 10:48:19;;;;;;;9.23;2.50;;;24.60;62.80;;;;;;5060048;28;20067;-74
2023/08/12 10:50:53;;;;;;;7.47;2.47;;;24.50;62.80;;;;;;5066269;28;20033;-73
2023/08/12 10:53:22;;;;;;;8.88;2.95;;;24.40;62.90;;;;;;5071509;28;20092;-72
2023/08/12 10:55:49;;;;;;;8.48;2.20;;;24.30;62.80;;;;;;5059477;28;20496;-72
2023/08/12 10:58:27;;;;;;;5.25;2.25;;;24.20;62.80;;;;;;5065176;28;20055;-72
2023/08/12 11:00:58;;;;;;;11.18;2.90;;;24.20;63.10;;;;;;5067959;28;20036;-71
2023/08/12 11:03:25;;;;;;;12.23;3.00;;;24.10;63.30;;;;;;5074930;28;20032;-73
2023/08/12 11:05:55;;;;;;;9.38;2.30;;;23.90;63.50;;;;;;5067739;28;20032;-72
2023/08/12 11:08:26;;;;;;;12.75;3.63;;;23.90;64.20;;;;;;5065186;28;20024;-73
2023/08/12 11:10:57;;;;;;;10.15;2.17;;;23.80;64.60;;;;;;5067642;28;20035;-73
2023/08/12 11:13:24;;;;;;;7.35;2.30;;;23.80;64.90;;;;;;5065106;28;20819;-73
2023/08/12 11:15:50;;;;;;;8.32;2.92;;;23.90;65.40;;;;;;5062348;28;20048;-74
2023/08/12 11:18:18;;;;;;;11.20;3.55;;;24.10;65.90;;;;;;5060650;28;20024;-72
2023/08/12 11:20:45;;;;;;;6.65;2.22;;;24.20;66.10;;;;;;5071035;28;20036;-73
2023/08/12 11:23:14;;;;;;;8.48;2.05;;;24.30;66.40;;;;;;5062417;28;20111;-73
2023/08/12 11:25:44;;;;;;;7.18;2.95;;;24.30;66.50;;;;;;5061310;28;20150;-72
2023/08/12 11:28:10;;;;;;;4.53;1.58;;;24.30;66.60;;;;;;5059844;28;20548;-74
2023/08/12 11:30:36;;;;;;;3.40;1.20;;;24.30;66.70;;;;;;5062570;28;20062;-74
2023/08/12 11:33:03;;;;;;;4.20;2.08;;;24.40;66.90;;;;;;5061223;28;20043;-72
2023/08/12 11:35:32;;;;;;;2.20;0.88;;;24.40;66.80;;;;;;5056290;28;20419;-71
2023/08/12 11:37:59;;;;;;;2.30;1.13;;;24.50;67.00;;;;;;5061183;28;20032;-72
2023/08/12 11:40:26;;;;;;;4.07;1.00;;;24.60;67.00;;;;;;5059637;28;20047;-72
2023/08/12 11:42:54;;;;;;;5.65;1.17;;;24.70;67.60;;;;;;5076525;28;20094;-75
2023/08/12 11:45:23;;;;;;;3.42;1.08;;;24.80;67.20;;;;;;5073301;28;20043;-72
2023/08/12 11:47:55;;;;;;;3.42;0.80;;;24.90;67.20;;;;;;5066288;28;20055;-72
2023/08/12 11:50:27;;;;;;;4.18;1.15;;;25.00;67.40;;;;;;5058179;28;20029;-73
2023/08/12 11:52:56;;;;;;;4.78;1.77;;;25.10;67.40;;;;;;5055517;28;20487;-73
2023/08/12 11:55:25;;;;;;;7.63;1.50;;;25.10;67.30;;;;;;5056565;28;20306;-73
2023/08/12 11:57:51;;;;;;;6.15;1.60;;;25.20;67.40;;;;;;5054232;28;20037;-72
2023/08/12 12:00:18;;;;;;;6.95;2.08;;;25.20;67.50;;;;;;5059948;28;20583;-74
2023/08/12 12:02:50;;;;;;;4.75;2.33;;;25.40;67.50;;;;;;5063552;28;20119;-72
2023/08/12 12:05:17;;;;;;;6.80;2.33;;;25.70;67.30;;;;;;5058601;28;20035;-72
2023/08/12 12:07:44;;;;;;;5.68;3.25;;;26.00;66.90;;;;;;5054372;28;20048;-71
2023/08/12 12:10:33;;;;;;;5.82;2.85;;;26.20;66.60;;;;;;5051666;28;20036;-72
2023/08/12 12:13:00;;;;;;;4.43;2.58;;;26.30;66.20;;;;;;5057877;28;20035;-71
2023/08/12 12:15:27;;;;;;;6.65;1.65;;;26.30;66.10;;;;;;5057784;28;20590;-72
2023/08/12 12:17:53;;;;;;;4.72;1.52;;;26.20;65.90;;;;;;5055833;28;20016;-74
2023/08/12 12:20:22;;;;;;;4.80;1.70;;;26.10;65.80;;;;;;5058493;28;20527;-72
2023/08/12 12:22:48;;;;;;;4.95;1.70;;;26.10;65.70;;;;;;5059468;28;20083;-71
2023/08/12 12:25:18;;;;;;;5.80;1.50;;;26.00;65.50;;;;;;5055484;28;20028;-71
2023/08/12 12:27:48;;;;;;;4.93;1.13;;;26.00;65.50;;;;;;5051845;28;20024;-72
2023/08/12 12:30:15;;;;;;;5.25;1.55;;;25.90;65.60;;;;;;5065212;28;20042;-71
2023/08/12 12:32:45;;;;;;;3.70;1.40;;;25.80;65.60;;;;;;5062970;28;20025;-71
2023/08/12 12:35:11;;;;;;;7.15;2.17;;;25.70;65.60;;;;;;5060747;28;20063;-71
2023/08/12 12:37:38;;;;;;;5.43;1.77;;;25.70;65.70;;;;;;5061379;28;20028;-71
2023/08/12 12:40:07;;;;;;;5.88;1.30;;;25.60;65.70;;;;;;5059555;28;20047;-71
2023/08/12 12:42:33;;;;;;;6.25;1.80;;;25.50;65.90;;;;;;5062437;28;20043;-71